sensor_id;sensor_type;location;lat;lon;timestamp;temperature;humidity
24664;DHT22;12791;50.992;13.788;2023-04-15T00:01:22;7.90;99.90
24664;DHT22;12791;50.992;13.788;2023-04-15T00:03:50;7.90;99.90
24664;DHT22;12791;50.992;13.788;2023-04-15T00:06:18;7.90;99.90
24664;DHT22;12791;50.992;13.788;2023-04-15T00:08:44;7.90;99.90
24664;DHT22;12791;50.992;13.788;2023-04-15T00:11:12;7.90;99.90
24664;DHT22;12791;50.992;13.788;2023-04-15T00:13:40;7.90;99.90
24664;DHT22;12791;50.992;13.788;2023-04-15T00:16:08;7.90;99.90
24664;DHT22;12791;50.992;13.788;2023-04-15T00:18:36;7.90;99.90
24664;DHT22;12791;50.992;13.788;2023-04-15T00:21:03;7.90;99.90
24664;DHT22;12791;50.992;13.788;2023-04-15T00:23:30;7.90;99.90
24664;DHT22;12791;50.992;13.788;2023-04-15T00:25:57;8.00;99.90
24664;DHT22;12791;50.992;13.788;2023-04-15T00:28:23;7.90;99.90
24664;DHT22;12791;50.992;13.788;2023-04-15T00:30:52;8.00;99.90
24664;DHT22;12791;50.992;13.788;2023-04-15T00:33:18;7.90;99.90
24664;DHT22;12791;50.992;13.788;2023-04-15T00:35:45;8.00;99.90
24664;DHT22;12791;50.992;13.788;2023-04-15T00:38:12;8.10;99.90
24664;DHT22;12791;50.992;13.788;2023-04-15T00:40:38;7.90;99.90
24664;DHT22;12791;50.992;13.788;2023-04-15T00:43:05;8.00;99.90
24664;DHT22;12791;50.992;13.788;2023-04-15T00:45:32;8.00;99.90
24664;DHT22;12791;50.992;13.788;2023-04-15T00:48:00;8.00;99.90
24664;DHT22;12791;50.992;13.788;2023-04-15T00:50:27;8.00;99.90
24664;DHT22;12791;50.992;13.788;2023-04-15T00:52:53;8.10;99.90
24664;DHT22;12791;50.992;13.788;2023-04-15T00:55:20;8.00;99.90
24664;DHT22;12791;50.992;13.788;2023-04-15T00:57:47;7.90;99.90
24664;DHT22;12791;50.992;13.788;2023-04-15T01:00:14;8.00;99.90
24664;DHT22;12791;50.992;13.788;2023-04-15T01:02:41;8.00;99.90
24664;DHT22;12791;50.992;13.788;2023-04-15T01:05:09;7.90;99.90
24664;DHT22;12791;50.992;13.788;2023-04-15T01:07:35;8.00;99.90
24664;DHT22;12791;50.992;13.788;2023-04-15T01:10:02;8.00;99.90
24664;DHT22;12791;50.992;13.788;2023-04-15T01:12:31;8.00;99.90
24664;DHT22;12791;50.992;13.788;2023-04-15T01:15:00;8.00;99.90
24664;DHT22;12791;50.992;13.788;2023-04-15T01:17:27;8.00;99.90
24664;DHT22;12791;50.992;13.788;2023-04-15T01:19:55;8.10;99.90
24664;DHT22;12791;50.992;13.788;2023-04-15T01:22:23;8.00;99.90
24664;DHT22;12791;50.992;13.788;2023-04-15T01:24:54;8.00;99.90
24664;DHT22;12791;50.992;13.788;2023-04-15T01:27:24;8.00;99.90
24664;DHT22;12791;50.992;13.788;2023-04-15T01:29:51;8.00;99.90
24664;DHT22;12791;50.992;13.788;2023-04-15T01:32:18;7.90;99.90
24664;DHT22;12791;50.992;13.788;2023-04-15T01:34:45;8.00;99.90
24664;DHT22;12791;50.992;13.788;2023-04-15T01:37:11;8.00;99.90
24664;DHT22;12791;50.992;13.788;2023-04-15T01:39:38;7.80;99.90
24664;DHT22;12791;50.992;13.788;2023-04-15T01:42:05;8.00;99.90
24664;DHT22;12791;50.992;13.788;2023-04-15T01:44:33;8.00;99.90
24664;DHT22;12791;50.992;13.788;2023-04-15T01:47:00;8.00;99.90
24664;DHT22;12791;50.992;13.788;2023-04-15T01:49:26;8.10;99.90
24664;DHT22;12791;50.992;13.788;2023-04-15T01:51:53;8.00;99.90
24664;DHT22;12791;50.992;13.788;2023-04-15T01:54:23;8.20;99.90
24664;DHT22;12791;50.992;13.788;2023-04-15T01:56:50;8.20;99.90
24664;DHT22;12791;50.992;13.788;2023-04-15T01:59:16;8.00;99.90
24664;DHT22;12791;50.992;13.788;2023-04-15T02:01:44;8.00;99.90
24664;DHT22;12791;50.992;13.788;2023-04-15T02:04:11;8.00;99.90
24664;DHT22;12791;50.992;13.788;2023-04-15T02:06:41;8.00;99.90
24664;DHT22;12791;50.992;13.788;2023-04-15T02:09:08;8.00;99.90
24664;DHT22;12791;50.992;13.788;2023-04-15T02:11:35;7.90;99.90
24664;DHT22;12791;50.992;13.788;2023-04-15T02:14:01;8.10;99.90
24664;DHT22;12791;50.992;13.788;2023-04-15T02:16:28;8.00;99.90
24664;DHT22;12791;50.992;13.788;2023-04-15T02:18:56;8.10;99.90
24664;DHT22;12791;50.992;13.788;2023-04-15T02:21:24;8.00;99.90
24664;DHT22;12791;50.992;13.788;2023-04-15T02:23:51;8.10;99.90
24664;DHT22;12791;50.992;13.788;2023-04-15T02:26:18;8.00;99.90
24664;DHT22;12791;50.992;13.788;2023-04-15T02:28:45;8.10;99.90
24664;DHT22;12791;50.992;13.788;2023-04-15T02:31:12;8.30;99.90
24664;DHT22;12791;50.992;13.788;2023-04-15T02:33:39;8.00;99.90
24664;DHT22;12791;50.992;13.788;2023-04-15T02:36:07;8.20;99.90
24664;DHT22;12791;50.992;13.788;2023-04-15T02:38:36;8.00;99.90
24664;DHT22;12791;50.992;13.788;2023-04-15T02:41:05;8.20;99.90
24664;DHT22;12791;50.992;13.788;2023-04-15T02:43:31;8.00;99.90
24664;DHT22;12791;50.992;13.788;2023-04-15T02:45:58;8.00;99.90
24664;DHT22;12791;50.992;13.788;2023-04-15T02:48:25;8.00;99.90
24664;DHT22;12791;50.992;13.788;2023-04-15T02:50:51;8.00;99.90
24664;DHT22;12791;50.992;13.788;2023-04-15T02:53:19;8.00;99.90
24664;DHT22;12791;50.992;13.788;2023-04-15T02:55:46;8.00;99.90
24664;DHT22;12791;50.992;13.788;2023-04-15T02:58:13;8.00;99.90
24664;DHT22;12791;50.992;13.788;2023-04-15T03:00:39;8.00;99.90
24664;DHT22;12791;50.992;13.788;2023-04-15T03:03:06;8.00;99.90
24664;DHT22;12791;50.992;13.788;2023-04-15T03:05:33;8.00;99.90
24664;DHT22;12791;50.992;13.788;2023-04-15T03:08:00;8.20;99.90
24664;DHT22;12791;50.992;13.788;2023-04-15T03:10:28;8.00;99.90
24664;DHT22;12791;50.992;13.788;2023-04-15T03:12:55;8.20;99.90
24664;DHT22;12791;50.992;13.788;2023-04-15T03:15:22;8.00;99.90
24664;DHT22;12791;50.992;13.788;2023-04-15T03:17:48;8.00;99.90
24664;DHT22;12791;50.992;13.788;2023-04-15T03:20:15;8.00;99.90
24664;DHT22;12791;50.992;13.788;2023-04-15T03:22:42;8.10;99.90
24664;DHT22;12791;50.992;13.788;2023-04-15T03:25:08;8.00;99.90
24664;DHT22;12791;50.992;13.788;2023-04-15T03:27:37;8.00;99.90
24664;DHT22;12791;50.992;13.788;2023-04-15T03:30:04;8.00;99.90
24664;DHT22;12791;50.992;13.788;2023-04-15T03:32:32;8.20;99.90
24664;DHT22;12791;50.992;13.788;2023-04-15T03:34:58;8.00;99.90
24664;DHT22;12791;50.992;13.788;2023-04-15T03:37:25;8.10;99.90
24664;DHT22;12791;50.992;13.788;2023-04-15T03:39:51;8.00;99.90
24664;DHT22;12791;50.992;13.788;2023-04-15T03:42:18;8.10;99.90
24664;DHT22;12791;50.992;13.788;2023-04-15T03:44:46;8.10;99.90
24664;DHT22;12791;50.992;13.788;2023-04-15T03:47:13;8.10;99.90
24664;DHT22;12791;50.992;13.788;2023-04-15T03:49:40;8.10;99.90
24664;DHT22;12791;50.992;13.788;2023-04-15T03:52:06;8.00;99.90
24664;DHT22;12791;50.992;13.788;2023-04-15T03:54:33;8.10;99.90
24664;DHT22;12791;50.992;13.788;2023-04-15T03:56:59;8.00;99.90
24664;DHT22;12791;50.992;13.788;2023-04-15T03:59:26;8.20;99.90
24664;DHT22;12791;50.992;13.788;2023-04-15T04:01:54;8.00;99.90
24664;DHT22;12791;50.992;13.788;2023-04-15T04:04:21;8.00;99.90
24664;DHT22;12791;50.992;13.788;2023-04-15T04:06:47;8.00;99.90
24664;DHT22;12791;50.992;13.788;2023-04-15T04:09:14;8.20;99.90
24664;DHT22;12791;50.992;13.788;2023-04-15T04:11:41;8.00;99.90
24664;DHT22;12791;50.992;13.788;2023-04-15T04:14:07;8.10;99.90
24664;DHT22;12791;50.992;13.788;2023-04-15T04:16:34;8.20;99.90
24664;DHT22;12791;50.992;13.788;2023-04-15T04:19:02;8.10;99.90
24664;DHT22;12791;50.992;13.788;2023-04-15T04:21:29;8.00;99.90
24664;DHT22;12791;50.992;13.788;2023-04-15T04:23:55;8.10;99.90
24664;DHT22;12791;50.992;13.788;2023-04-15T04:26:23;8.10;99.90
24664;DHT22;12791;50.992;13.788;2023-04-15T04:28:50;8.10;99.90
24664;DHT22;12791;50.992;13.788;2023-04-15T04:31:17;8.10;99.90
24664;DHT22;12791;50.992;13.788;2023-04-15T04:33:43;8.10;99.90
24664;DHT22;12791;50.992;13.788;2023-04-15T04:36:12;8.10;99.90
24664;DHT22;12791;50.992;13.788;2023-04-15T04:38:38;8.10;99.90
24664;DHT22;12791;50.992;13.788;2023-04-15T04:41:05;8.30;99.90
24664;DHT22;12791;50.992;13.788;2023-04-15T04:43:31;8.10;99.90
24664;DHT22;12791;50.992;13.788;2023-04-15T04:45:58;8.30;99.90
24664;DHT22;12791;50.992;13.788;2023-04-15T04:48:25;8.00;99.90
24664;DHT22;12791;50.992;13.788;2023-04-15T04:50:51;8.30;99.90
24664;DHT22;12791;50.992;13.788;2023-04-15T04:53:19;8.20;99.90
24664;DHT22;12791;50.992;13.788;2023-04-15T04:55:46;8.20;99.90
24664;DHT22;12791;50.992;13.788;2023-04-15T04:58:12;8.20;99.90
24664;DHT22;12791;50.992;13.788;2023-04-15T05:00:39;8.30;99.90
24664;DHT22;12791;50.992;13.788;2023-04-15T05:03:06;8.30;99.90
24664;DHT22;12791;50.992;13.788;2023-04-15T05:05:33;8.30;99.90
24664;DHT22;12791;50.992;13.788;2023-04-15T05:08:01;8.30;99.90
24664;DHT22;12791;50.992;13.788;2023-04-15T05:10:29;8.30;99.90
24664;DHT22;12791;50.992;13.788;2023-04-15T05:12:56;8.30;99.90
24664;DHT22;12791;50.992;13.788;2023-04-15T05:15:22;8.30;99.90
24664;DHT22;12791;50.992;13.788;2023-04-15T05:17:49;8.30;99.90
24664;DHT22;12791;50.992;13.788;2023-04-15T05:20:16;8.60;99.90
24664;DHT22;12791;50.992;13.788;2023-04-15T05:22:42;8.40;99.90
24664;DHT22;12791;50.992;13.788;2023-04-15T05:25:09;8.30;99.90
24664;DHT22;12791;50.992;13.788;2023-04-15T05:27:37;8.40;99.90
24664;DHT22;12791;50.992;13.788;2023-04-15T05:30:05;8.40;99.90
24664;DHT22;12791;50.992;13.788;2023-04-15T05:32:32;8.40;99.90
24664;DHT22;12791;50.992;13.788;2023-04-15T05:34:58;8.40;99.90
24664;DHT22;12791;50.992;13.788;2023-04-15T05:37:25;8.40;99.90
24664;DHT22;12791;50.992;13.788;2023-04-15T05:39:52;8.30;99.90
24664;DHT22;12791;50.992;13.788;2023-04-15T05:42:18;8.40;99.90
24664;DHT22;12791;50.992;13.788;2023-04-15T05:44:46;8.30;99.90
24664;DHT22;12791;50.992;13.788;2023-04-15T05:47:13;8.30;99.90
24664;DHT22;12791;50.992;13.788;2023-04-15T05:49:40;8.40;99.90
24664;DHT22;12791;50.992;13.788;2023-04-15T05:52:06;8.50;99.90
24664;DHT22;12791;50.992;13.788;2023-04-15T05:54:33;8.40;99.90
24664;DHT22;12791;50.992;13.788;2023-04-15T05:57:00;8.50;99.90
24664;DHT22;12791;50.992;13.788;2023-04-15T05:59:27;8.50;99.90
24664;DHT22;12791;50.992;13.788;2023-04-15T06:01:55;8.40;99.90
24664;DHT22;12791;50.992;13.788;2023-04-15T06:04:22;8.50;99.90
24664;DHT22;12791;50.992;13.788;2023-04-15T06:06:49;8.60;99.90
24664;DHT22;12791;50.992;13.788;2023-04-15T06:09:15;8.40;99.90
24664;DHT22;12791;50.992;13.788;2023-04-15T06:11:42;8.50;99.90
24664;DHT22;12791;50.992;13.788;2023-04-15T06:14:08;8.50;99.90
24664;DHT22;12791;50.992;13.788;2023-04-15T06:16:35;8.30;99.90
24664;DHT22;12791;50.992;13.788;2023-04-15T06:19:03;8.50;99.90
24664;DHT22;12791;50.992;13.788;2023-04-15T06:21:30;8.50;99.90
24664;DHT22;12791;50.992;13.788;2023-04-15T06:23:57;8.50;99.90
24664;DHT22;12791;50.992;13.788;2023-04-15T06:26:24;8.70;99.90
24664;DHT22;12791;50.992;13.788;2023-04-15T06:28:51;8.40;99.90
24664;DHT22;12791;50.992;13.788;2023-04-15T06:31:18;8.50;99.90
24664;DHT22;12791;50.992;13.788;2023-04-15T06:33:45;8.50;99.90
24664;DHT22;12791;50.992;13.788;2023-04-15T06:36:13;8.70;99.90
24664;DHT22;12791;50.992;13.788;2023-04-15T06:38:39;8.60;99.90
24664;DHT22;12791;50.992;13.788;2023-04-15T06:41:06;8.60;99.90
24664;DHT22;12791;50.992;13.788;2023-04-15T06:43:33;8.60;99.90
24664;DHT22;12791;50.992;13.788;2023-04-15T06:45:59;8.60;99.90
24664;DHT22;12791;50.992;13.788;2023-04-15T06:48:26;8.80;99.90
24664;DHT22;12791;50.992;13.788;2023-04-15T06:50:53;8.70;99.90
24664;DHT22;12791;50.992;13.788;2023-04-15T06:53:21;8.70;99.90
24664;DHT22;12791;50.992;13.788;2023-04-15T06:55:48;8.80;99.90
24664;DHT22;12791;50.992;13.788;2023-04-15T06:58:15;8.90;99.90
24664;DHT22;12791;50.992;13.788;2023-04-15T07:00:41;8.80;99.90
24664;DHT22;12791;50.992;13.788;2023-04-15T07:03:09;8.80;99.90
24664;DHT22;12791;50.992;13.788;2023-04-15T07:05:37;8.80;99.90
24664;DHT22;12791;50.992;13.788;2023-04-15T07:08:04;8.90;99.90
24664;DHT22;12791;50.992;13.788;2023-04-15T07:10:32;8.90;99.90
24664;DHT22;12791;50.992;13.788;2023-04-15T07:12:59;8.90;99.90
24664;DHT22;12791;50.992;13.788;2023-04-15T07:15:26;9.00;99.90
24664;DHT22;12791;50.992;13.788;2023-04-15T07:17:53;8.90;99.90
24664;DHT22;12791;50.992;13.788;2023-04-15T07:20:20;8.90;99.90
24664;DHT22;12791;50.992;13.788;2023-04-15T07:22:47;8.90;99.90
24664;DHT22;12791;50.992;13.788;2023-04-15T07:25:13;8.90;99.90
24664;DHT22;12791;50.992;13.788;2023-04-15T07:27:41;9.10;99.90
24664;DHT22;12791;50.992;13.788;2023-04-15T07:30:09;8.90;99.90
24664;DHT22;12791;50.992;13.788;2023-04-15T07:32:36;8.80;99.90
24664;DHT22;12791;50.992;13.788;2023-04-15T07:35:04;9.00;99.90
24664;DHT22;12791;50.992;13.788;2023-04-15T07:37:30;9.00;99.90
24664;DHT22;12791;50.992;13.788;2023-04-15T07:39:58;9.00;99.90
24664;DHT22;12791;50.992;13.788;2023-04-15T07:42:24;8.90;99.90
24664;DHT22;12791;50.992;13.788;2023-04-15T07:44:52;9.10;99.90
24664;DHT22;12791;50.992;13.788;2023-04-15T07:47:19;9.10;99.90
24664;DHT22;12791;50.992;13.788;2023-04-15T07:49:46;9.30;99.90
24664;DHT22;12791;50.992;13.788;2023-04-15T07:52:13;9.20;99.90
24664;DHT22;12791;50.992;13.788;2023-04-15T07:54:39;9.30;99.90
24664;DHT22;12791;50.992;13.788;2023-04-15T07:57:06;9.40;99.90
24664;DHT22;12791;50.992;13.788;2023-04-15T07:59:33;9.60;99.90
24664;DHT22;12791;50.992;13.788;2023-04-15T08:02:01;9.50;99.90
24664;DHT22;12791;50.992;13.788;2023-04-15T08:04:28;9.70;99.90
24664;DHT22;12791;50.992;13.788;2023-04-15T08:06:55;9.70;99.90
24664;DHT22;12791;50.992;13.788;2023-04-15T08:09:22;9.70;99.90
24664;DHT22;12791;50.992;13.788;2023-04-15T08:11:49;9.70;99.90
24664;DHT22;12791;50.992;13.788;2023-04-15T08:14:16;9.70;99.90
24664;DHT22;12791;50.992;13.788;2023-04-15T08:16:42;9.80;99.90
24664;DHT22;12791;50.992;13.788;2023-04-15T08:19:10;9.80;99.90
24664;DHT22;12791;50.992;13.788;2023-04-15T08:21:37;9.80;99.90
24664;DHT22;12791;50.992;13.788;2023-04-15T08:24:05;9.80;99.90
24664;DHT22;12791;50.992;13.788;2023-04-15T08:26:32;9.80;99.90
24664;DHT22;12791;50.992;13.788;2023-04-15T08:28:59;9.80;99.90
24664;DHT22;12791;50.992;13.788;2023-04-15T08:31:27;9.80;99.90
24664;DHT22;12791;50.992;13.788;2023-04-15T08:33:55;9.80;99.90
24664;DHT22;12791;50.992;13.788;2023-04-15T08:36:23;9.80;99.90
24664;DHT22;12791;50.992;13.788;2023-04-15T08:38:51;9.80;99.90
24664;DHT22;12791;50.992;13.788;2023-04-15T08:41:20;9.80;99.90
24664;DHT22;12791;50.992;13.788;2023-04-15T08:43:51;9.80;99.90
24664;DHT22;12791;50.992;13.788;2023-04-15T08:46:18;9.80;99.90
24664;DHT22;12791;50.992;13.788;2023-04-15T08:48:47;9.70;99.90
24664;DHT22;12791;50.992;13.788;2023-04-15T08:51:13;9.70;99.90
24664;DHT22;12791;50.992;13.788;2023-04-15T08:53:42;9.70;99.90
24664;DHT22;12791;50.992;13.788;2023-04-15T08:56:11;9.70;99.90
24664;DHT22;12791;50.992;13.788;2023-04-15T08:58:40;9.70;99.90
24664;DHT22;12791;50.992;13.788;2023-04-15T09:01:07;9.70;99.90
24664;DHT22;12791;50.992;13.788;2023-04-15T09:03:34;9.70;99.90
24664;DHT22;12791;50.992;13.788;2023-04-15T09:06:03;9.70;99.90
24664;DHT22;12791;50.992;13.788;2023-04-15T09:08:30;9.60;99.90
24664;DHT22;12791;50.992;13.788;2023-04-15T09:10:58;9.60;99.90
24664;DHT22;12791;50.992;13.788;2023-04-15T09:13:25;9.60;99.90
24664;DHT22;12791;50.992;13.788;2023-04-15T09:15:52;9.60;99.90
24664;DHT22;12791;50.992;13.788;2023-04-15T09:18:29;9.70;99.90
24664;DHT22;12791;50.992;13.788;2023-04-15T09:21:03;9.90;99.90
24664;DHT22;12791;50.992;13.788;2023-04-15T09:23:31;9.90;99.90
24664;DHT22;12791;50.992;13.788;2023-04-15T09:25:59;9.90;99.90
24664;DHT22;12791;50.992;13.788;2023-04-15T09:28:27;9.90;99.90
24664;DHT22;12791;50.992;13.788;2023-04-15T09:30:56;9.70;99.90
24664;DHT22;12791;50.992;13.788;2023-04-15T09:33:24;9.90;99.90
24664;DHT22;12791;50.992;13.788;2023-04-15T09:35:58;9.80;99.90
24664;DHT22;12791;50.992;13.788;2023-04-15T09:38:26;9.80;99.90
24664;DHT22;12791;50.992;13.788;2023-04-15T09:40:52;9.70;99.90
24664;DHT22;12791;50.992;13.788;2023-04-15T09:43:20;9.70;99.90
24664;DHT22;12791;50.992;13.788;2023-04-15T09:45:48;9.60;99.90
24664;DHT22;12791;50.992;13.788;2023-04-15T09:48:17;9.60;99.90
24664;DHT22;12791;50.992;13.788;2023-04-15T09:50:45;9.60;99.90
24664;DHT22;12791;50.992;13.788;2023-04-15T09:53:15;9.80;99.90
24664;DHT22;12791;50.992;13.788;2023-04-15T09:55:44;9.70;99.90
24664;DHT22;12791;50.992;13.788;2023-04-15T09:58:17;9.70;99.90
24664;DHT22;12791;50.992;13.788;2023-04-15T10:00:46;9.60;99.90
24664;DHT22;12791;50.992;13.788;2023-04-15T10:03:14;9.80;99.90
24664;DHT22;12791;50.992;13.788;2023-04-15T10:05:43;9.40;99.90
24664;DHT22;12791;50.992;13.788;2023-04-15T10:08:10;9.60;99.90
24664;DHT22;12791;50.992;13.788;2023-04-15T10:10:38;9.70;99.90
24664;DHT22;12791;50.992;13.788;2023-04-15T10:13:06;9.40;99.90
24664;DHT22;12791;50.992;13.788;2023-04-15T10:15:34;9.40;99.90
24664;DHT22;12791;50.992;13.788;2023-04-15T10:18:04;9.40;99.90
24664;DHT22;12791;50.992;13.788;2023-04-15T10:20:33;9.30;99.90
24664;DHT22;12791;50.992;13.788;2023-04-15T10:23:01;9.30;99.90
24664;DHT22;12791;50.992;13.788;2023-04-15T10:25:27;9.60;99.90
24664;DHT22;12791;50.992;13.788;2023-04-15T10:27:54;9.60;99.90
24664;DHT22;12791;50.992;13.788;2023-04-15T10:30:22;9.30;99.90
24664;DHT22;12791;50.992;13.788;2023-04-15T10:32:49;9.30;99.90
24664;DHT22;12791;50.992;13.788;2023-04-15T10:35:17;9.40;99.90
24664;DHT22;12791;50.992;13.788;2023-04-15T10:37:46;9.40;99.90
24664;DHT22;12791;50.992;13.788;2023-04-15T10:40:27;9.40;99.90
24664;DHT22;12791;50.992;13.788;2023-04-15T10:42:54;9.40;99.90
24664;DHT22;12791;50.992;13.788;2023-04-15T10:45:21;9.40;99.90
24664;DHT22;12791;50.992;13.788;2023-04-15T10:47:54;9.40;99.90
24664;DHT22;12791;50.992;13.788;2023-04-15T10:50:25;9.50;99.90
24664;DHT22;12791;50.992;13.788;2023-04-15T10:52:53;9.50;99.90
24664;DHT22;12791;50.992;13.788;2023-04-15T10:55:23;9.50;99.90
24664;DHT22;12791;50.992;13.788;2023-04-15T10:57:52;9.60;99.90
24664;DHT22;12791;50.992;13.788;2023-04-15T11:00:20;9.70;99.90
24664;DHT22;12791;50.992;13.788;2023-04-15T11:02:52;9.70;99.90
24664;DHT22;12791;50.992;13.788;2023-04-15T11:05:22;9.80;99.90
24664;DHT22;12791;50.992;13.788;2023-04-15T11:07:52;10.00;99.90
24664;DHT22;12791;50.992;13.788;2023-04-15T11:10:49;9.80;99.90
24664;DHT22;12791;50.992;13.788;2023-04-15T11:13:20;9.80;99.90
24664;DHT22;12791;50.992;13.788;2023-04-15T11:15:48;9.80;99.90
24664;DHT22;12791;50.992;13.788;2023-04-15T11:18:17;9.80;99.90
24664;DHT22;12791;50.992;13.788;2023-04-15T11:20:47;9.80;99.90
24664;DHT22;12791;50.992;13.788;2023-04-15T11:23:16;9.80;99.90
24664;DHT22;12791;50.992;13.788;2023-04-15T11:25:43;9.70;99.90
24664;DHT22;12791;50.992;13.788;2023-04-15T11:28:11;9.80;99.90
24664;DHT22;12791;50.992;13.788;2023-04-15T11:30:38;9.90;99.90
24664;DHT22;12791;50.992;13.788;2023-04-15T11:33:06;9.80;99.90
24664;DHT22;12791;50.992;13.788;2023-04-15T11:35:34;9.80;99.90
24664;DHT22;12791;50.992;13.788;2023-04-15T11:38:03;9.80;99.90
24664;DHT22;12791;50.992;13.788;2023-04-15T11:40:31;9.80;99.90
24664;DHT22;12791;50.992;13.788;2023-04-15T11:43:06;9.80;99.90
24664;DHT22;12791;50.992;13.788;2023-04-15T11:45:34;9.80;99.90
24664;DHT22;12791;50.992;13.788;2023-04-15T11:48:07;9.80;99.90
24664;DHT22;12791;50.992;13.788;2023-04-15T11:50:35;9.80;99.90
24664;DHT22;12791;50.992;13.788;2023-04-15T11:53:04;9.80;99.90
24664;DHT22;12791;50.992;13.788;2023-04-15T11:55:40;9.80;99.90
24664;DHT22;12791;50.992;13.788;2023-04-15T11:58:09;9.80;99.90
24664;DHT22;12791;50.992;13.788;2023-04-15T12:00:37;9.80;99.90
24664;DHT22;12791;50.992;13.788;2023-04-15T12:03:16;9.80;99.90
24664;DHT22;12791;50.992;13.788;2023-04-15T12:06:05;9.70;99.90
24664;DHT22;12791;50.992;13.788;2023-04-15T12:09:11;9.80;99.90
24664;DHT22;12791;50.992;13.788;2023-04-15T12:11:45;9.80;99.90
24664;DHT22;12791;50.992;13.788;2023-04-15T12:14:20;9.80;99.90
24664;DHT22;12791;50.992;13.788;2023-04-15T12:16:48;9.90;99.90
24664;DHT22;12791;50.992;13.788;2023-04-15T12:19:17;9.80;99.90
24664;DHT22;12791;50.992;13.788;2023-04-15T12:21:45;9.80;99.90
24664;DHT22;12791;50.992;13.788;2023-04-15T12:24:14;9.90;99.90
24664;DHT22;12791;50.992;13.788;2023-04-15T12:26:43;10.00;99.90
24664;DHT22;12791;50.992;13.788;2023-04-15T12:29:11;10.30;99.90
24664;DHT22;12791;50.992;13.788;2023-04-15T12:31:46;10.10;99.90
24664;DHT22;12791;50.992;13.788;2023-04-15T12:34:13;10.20;99.90
24664;DHT22;12791;50.992;13.788;2023-04-15T12:36:41;10.20;99.90
24664;DHT22;12791;50.992;13.788;2023-04-15T12:39:07;10.20;99.90
24664;DHT22;12791;50.992;13.788;2023-04-15T12:41:36;10.20;99.90
24664;DHT22;12791;50.992;13.788;2023-04-15T12:44:02;10.30;99.90
24664;DHT22;12791;50.992;13.788;2023-04-15T12:46:29;10.30;99.90
24664;DHT22;12791;50.992;13.788;2023-04-15T12:48:56;10.40;99.90
24664;DHT22;12791;50.992;13.788;2023-04-15T12:51:23;10.40;99.90
24664;DHT22;12791;50.992;13.788;2023-04-15T12:53:51;10.40;99.90
24664;DHT22;12791;50.992;13.788;2023-04-15T12:56:18;10.40;99.90
24664;DHT22;12791;50.992;13.788;2023-04-15T12:58:46;10.40;99.90
24664;DHT22;12791;50.992;13.788;2023-04-15T13:01:12;10.40;99.90
24664;DHT22;12791;50.992;13.788;2023-04-15T13:03:39;10.30;99.90
24664;DHT22;12791;50.992;13.788;2023-04-15T13:06:06;10.30;99.90
24664;DHT22;12791;50.992;13.788;2023-04-15T13:08:33;10.20;99.90
24664;DHT22;12791;50.992;13.788;2023-04-15T13:10:59;10.20;99.90
24664;DHT22;12791;50.992;13.788;2023-04-15T13:13:26;10.30;99.90
24664;DHT22;12791;50.992;13.788;2023-04-15T13:15:54;10.30;99.90
24664;DHT22;12791;50.992;13.788;2023-04-15T13:18:21;10.40;99.90
24664;DHT22;12791;50.992;13.788;2023-04-15T13:20:48;10.50;99.90
24664;DHT22;12791;50.992;13.788;2023-04-15T13:23:15;10.60;99.90
24664;DHT22;12791;50.992;13.788;2023-04-15T13:25:41;10.80;99.90
24664;DHT22;12791;50.992;13.788;2023-04-15T13:28:10;10.80;99.90
24664;DHT22;12791;50.992;13.788;2023-04-15T13:30:36;10.90;99.90
24664;DHT22;12791;50.992;13.788;2023-04-15T13:33:05;10.90;99.90
24664;DHT22;12791;50.992;13.788;2023-04-15T13:35:32;10.90;99.90
24664;DHT22;12791;50.992;13.788;2023-04-15T13:37:58;10.90;99.90
24664;DHT22;12791;50.992;13.788;2023-04-15T13:40:25;11.00;99.90
24664;DHT22;12791;50.992;13.788;2023-04-15T13:42:52;11.00;99.90
24664;DHT22;12791;50.992;13.788;2023-04-15T13:45:18;11.10;99.90
24664;DHT22;12791;50.992;13.788;2023-04-15T13:47:45;11.10;99.90
24664;DHT22;12791;50.992;13.788;2023-04-15T13:50:13;11.10;99.90
24664;DHT22;12791;50.992;13.788;2023-04-15T13:52:39;11.20;99.90
24664;DHT22;12791;50.992;13.788;2023-04-15T13:55:07;11.20;99.90
24664;DHT22;12791;50.992;13.788;2023-04-15T13:57:33;11.20;99.90
24664;DHT22;12791;50.992;13.788;2023-04-15T14:00:00;11.30;99.90
24664;DHT22;12791;50.992;13.788;2023-04-15T14:02:28;11.40;99.90
24664;DHT22;12791;50.992;13.788;2023-04-15T14:04:55;11.30;99.90
24664;DHT22;12791;50.992;13.788;2023-04-15T14:07:23;11.30;99.90
24664;DHT22;12791;50.992;13.788;2023-04-15T14:09:49;11.30;99.90
24664;DHT22;12791;50.992;13.788;2023-04-15T14:12:16;11.40;99.90
24664;DHT22;12791;50.992;13.788;2023-04-15T14:14:43;11.50;99.90
24664;DHT22;12791;50.992;13.788;2023-04-15T14:17:11;11.40;99.90
24664;DHT22;12791;50.992;13.788;2023-04-15T14:19:37;11.50;99.90
24664;DHT22;12791;50.992;13.788;2023-04-15T14:22:04;11.60;99.90
24664;DHT22;12791;50.992;13.788;2023-04-15T14:24:32;11.60;99.90
24664;DHT22;12791;50.992;13.788;2023-04-15T14:26:59;11.60;99.90
24664;DHT22;12791;50.992;13.788;2023-04-15T14:29:26;11.60;99.90
24664;DHT22;12791;50.992;13.788;2023-04-15T14:31:53;11.70;99.90
24664;DHT22;12791;50.992;13.788;2023-04-15T14:34:21;11.70;99.90
24664;DHT22;12791;50.992;13.788;2023-04-15T14:36:49;11.70;99.90
24664;DHT22;12791;50.992;13.788;2023-04-15T14:39:16;11.70;99.90
24664;DHT22;12791;50.992;13.788;2023-04-15T14:41:44;11.70;99.90
24664;DHT22;12791;50.992;13.788;2023-04-15T14:44:11;11.70;99.90
24664;DHT22;12791;50.992;13.788;2023-04-15T14:46:38;11.70;99.90
24664;DHT22;12791;50.992;13.788;2023-04-15T14:49:05;11.70;99.90
24664;DHT22;12791;50.992;13.788;2023-04-15T14:51:31;11.80;99.90
24664;DHT22;12791;50.992;13.788;2023-04-15T14:53:58;11.80;99.90
24664;DHT22;12791;50.992;13.788;2023-04-15T14:56:25;11.90;99.90
24664;DHT22;12791;50.992;13.788;2023-04-15T14:58:53;11.90;99.90
24664;DHT22;12791;50.992;13.788;2023-04-15T15:01:20;11.50;99.90
24664;DHT22;12791;50.992;13.788;2023-04-15T15:03:49;12.00;99.90
24664;DHT22;12791;50.992;13.788;2023-04-15T15:06:15;12.10;99.90
24664;DHT22;12791;50.992;13.788;2023-04-15T15:08:42;12.20;99.90
24664;DHT22;12791;50.992;13.788;2023-04-15T15:11:09;12.20;99.90
24664;DHT22;12791;50.992;13.788;2023-04-15T15:13:35;12.20;99.90
24664;DHT22;12791;50.992;13.788;2023-04-15T15:16:04;12.20;99.90
24664;DHT22;12791;50.992;13.788;2023-04-15T15:18:30;12.10;99.90
24664;DHT22;12791;50.992;13.788;2023-04-15T15:20:57;12.10;99.90
24664;DHT22;12791;50.992;13.788;2023-04-15T15:23:23;12.00;99.90
24664;DHT22;12791;50.992;13.788;2023-04-15T15:25:50;12.00;99.90
24664;DHT22;12791;50.992;13.788;2023-04-15T15:28:17;12.10;99.90
24664;DHT22;12791;50.992;13.788;2023-04-15T15:30:43;12.10;99.90